Pana, Illinois
Current Conditions -  °F | °C
As of 10:55 PM on Friday 28 Nov 2014 (Local Time) from KTAZ Reporting Station
Clear Clear  
Wind Chill: 28°   Ceiling: Unl
Heat Index: 36°   Visibility: 10mi
Dew Point: 32°   Wind: 12mph
Humidity: 87%   Direction: 170°S
Pressure: 29.89"   Gusts: NA
Location:  39.39°N, 89.08°W
Report Text: KTAZ 290455Z AUTO 17010KT 10SM CLR 02/00 A2989 RMK AO2
Loading
Personal Weather Stations






























Interactive Weather Map New forecast layout! Learn more

10-Day Weather Forecast

Advertisements
Track Severe Weather on mobile